createdAt,value
2018-03-16T00:00:37.533Z,7.70
2018-03-16T00:03:05.026Z,7.80
2018-03-16T00:05:32.550Z,7.80
2018-03-16T00:08:00.054Z,7.70
2018-03-16T00:10:27.582Z,7.70
2018-03-16T00:12:55.083Z,7.80
2018-03-16T00:15:22.903Z,7.70
2018-03-16T00:17:50.438Z,7.70
2018-03-16T00:20:18.703Z,7.70
2018-03-16T00:31:20.212Z,7.70
2018-03-16T00:33:48.478Z,7.70
2018-03-16T00:36:15.973Z,7.70
2018-03-16T00:38:43.498Z,7.70
2018-03-16T00:41:10.997Z,7.70
2018-03-16T00:43:38.523Z,7.60
2018-03-16T00:46:06.787Z,7.60
2018-03-16T00:48:34.288Z,7.60
2018-03-16T00:51:01.822Z,7.60
2018-03-16T00:53:30.082Z,7.60
2018-03-16T00:55:57.606Z,7.60
2018-03-16T00:58:25.106Z,7.60
2018-03-16T01:00:53.375Z,7.60
2018-03-16T01:03:20.894Z,7.60
2018-03-16T01:05:48.395Z,7.60
2018-03-16T01:08:15.914Z,7.60
2018-03-16T01:10:43.409Z,7.60
2018-03-16T01:13:10.907Z,7.70
2018-03-16T01:15:38.430Z,7.70
2018-03-16T01:18:05.930Z,7.60
2018-03-16T01:20:39.071Z,7.70
2018-03-16T01:23:06.566Z,7.70
2018-03-16T01:25:34.067Z,7.60
2018-03-16T01:28:01.593Z,7.50
2018-03-16T01:30:29.086Z,7.50
2018-03-16T01:32:56.607Z,7.50
2018-03-16T01:35:24.106Z,7.40
2018-03-16T01:37:51.601Z,7.40
2018-03-16T01:40:19.891Z,7.30
2018-03-16T01:42:47.389Z,7.30
2018-03-16T01:45:14.910Z,7.30
2018-03-16T01:47:42.430Z,7.20
2018-03-16T01:50:09.930Z,7.20
2018-03-16T01:52:37.454Z,7.20
2018-03-16T01:55:04.958Z,7.20
2018-03-16T01:57:32.482Z,7.10
2018-03-16T02:00:00.750Z,7.20
2018-03-16T02:02:29.042Z,7.30
2018-03-16T02:04:57.311Z,7.30
2018-03-16T02:07:25.579Z,7.20
2018-03-16T02:09:53.862Z,7.20
2018-03-16T02:12:22.125Z,7.20
2018-03-16T02:14:49.642Z,7.20
2018-03-16T02:17:17.214Z,7.20
2018-03-16T02:19:44.718Z,7.20
2018-03-16T02:22:13.009Z,7.20
2018-03-16T02:24:40.513Z,7.20
2018-03-16T02:27:08.036Z,7.20
2018-03-16T02:29:35.538Z,7.20
2018-03-16T02:32:03.039Z,7.20
2018-03-16T02:34:30.563Z,7.10
2018-03-16T02:36:58.066Z,7.10
2018-03-16T02:39:25.591Z,7.10
2018-03-16T02:41:53.091Z,7.10
2018-03-16T02:44:20.619Z,7.10
2018-03-16T02:46:48.891Z,7.10
2018-03-16T02:49:17.159Z,7.10
2018-03-16T02:51:44.682Z,7.10
2018-03-16T02:54:12.179Z,7.10
2018-03-16T02:56:39.703Z,7.00
2018-03-16T02:59:07.202Z,7.00
2018-03-16T03:01:35.496Z,7.00
2018-03-16T03:04:03.010Z,6.90
2018-03-16T03:06:30.510Z,7.00
2018-03-16T03:08:58.030Z,6.90
2018-03-16T03:11:25.530Z,6.90
2018-03-16T03:13:53.054Z,6.80
2018-03-16T03:16:20.550Z,6.90
2018-03-16T03:18:48.057Z,6.90
2018-03-16T03:21:15.578Z,6.90
2018-03-16T03:23:43.078Z,6.90
2018-03-16T03:26:10.599Z,6.90
2018-03-16T03:28:38.098Z,6.80
2018-03-16T03:31:05.606Z,6.80
2018-03-16T03:33:33.130Z,6.80
2018-03-16T03:36:00.630Z,6.80
2018-03-16T03:38:28.157Z,6.80
2018-03-16T03:40:56.428Z,6.80
2018-03-16T03:43:24.702Z,6.80
2018-03-16T03:45:53.002Z,6.80
2018-03-16T03:48:20.501Z,6.70
2018-03-16T03:50:48.022Z,6.80
2018-03-16T03:53:15.522Z,6.80
2018-03-16T03:55:43.021Z,6.80
2018-03-16T03:58:11.310Z,6.90
2018-03-16T04:00:38.805Z,6.80
2018-03-16T04:03:06.322Z,6.90
2018-03-16T04:05:34.586Z,6.90
2018-03-16T04:08:02.876Z,6.90
2018-03-16T04:10:31.142Z,6.90
2018-03-16T04:12:59.406Z,6.90
2018-03-16T04:15:26.930Z,6.90
2018-03-16T04:17:55.195Z,6.90
2018-03-16T04:20:22.718Z,6.90
2018-03-16T04:22:50.986Z,6.90
2018-03-16T04:25:19.251Z,6.90
2018-03-16T04:27:46.778Z,6.90
2018-03-16T04:30:14.278Z,6.90
2018-03-16T04:32:42.562Z,7.00
2018-03-16T04:35:10.826Z,7.00
2018-03-16T04:37:39.118Z,7.00
2018-03-16T04:40:07.387Z,7.00
2018-03-16T04:42:35.654Z,7.00
2018-03-16T04:45:03.950Z,7.00
2018-03-16T04:47:32.218Z,7.10
2018-03-16T04:50:00.506Z,7.00
2018-03-16T04:52:28.007Z,7.00
2018-03-16T04:54:55.533Z,7.00
2018-03-16T04:57:23.034Z,7.00
2018-03-16T04:59:50.530Z,7.00
2018-03-16T05:02:18.818Z,7.00
2018-03-16T05:04:46.318Z,7.00
2018-03-16T05:07:13.838Z,7.00
2018-03-16T05:09:41.338Z,7.00
2018-03-16T05:12:08.865Z,7.00
2018-03-16T05:14:36.363Z,7.00
2018-03-16T05:17:03.882Z,6.90
2018-03-16T05:19:31.386Z,6.90
2018-03-16T05:21:58.914Z,6.90
2018-03-16T05:24:26.414Z,6.90
2018-03-16T05:26:53.914Z,6.90
2018-03-16T05:29:21.434Z,6.80
2018-03-16T05:31:49.710Z,6.90
2018-03-16T05:34:17.235Z,6.90
2018-03-16T05:36:44.738Z,6.90
2018-03-16T05:39:13.017Z,6.80
2018-03-16T05:41:41.283Z,6.80
2018-03-16T05:44:08.782Z,6.80
2018-03-16T05:46:36.306Z,6.80
2018-03-16T05:49:04.587Z,6.70
2018-03-16T05:51:32.878Z,6.70
2018-03-16T05:54:00.378Z,6.70
2018-03-16T05:56:27.902Z,6.70
2018-03-16T05:58:55.402Z,6.70
2018-03-16T06:01:22.903Z,6.70
2018-03-16T06:03:51.193Z,6.70
2018-03-16T06:06:18.698Z,6.70
2018-03-16T06:08:46.986Z,6.70
2018-03-16T06:11:14.486Z,6.70
2018-03-16T06:13:42.012Z,6.70
2018-03-16T06:16:09.511Z,6.80
2018-03-16T06:18:37.011Z,6.80
2018-03-16T06:21:04.538Z,6.80
2018-03-16T06:23:32.038Z,6.90
2018-03-16T06:25:59.563Z,6.90
2018-03-16T06:28:27.058Z,7.00
2018-03-16T06:30:54.582Z,7.10
2018-03-16T06:33:22.082Z,7.10
2018-03-16T06:35:49.579Z,7.20
2018-03-16T06:38:17.102Z,7.30
2018-03-16T06:40:45.374Z,7.40
2018-03-16T06:43:12.897Z,7.40
2018-03-16T06:45:41.162Z,7.60
2018-03-16T06:48:08.689Z,7.60
2018-03-16T06:50:36.955Z,8.00
2018-03-16T06:53:05.222Z,8.10
2018-03-16T06:55:33.510Z,8.20
2018-03-16T06:58:01.775Z,8.20
2018-03-16T07:00:30.062Z,8.20
2018-03-16T07:02:58.326Z,8.20
2018-03-16T07:05:25.850Z,8.20
2018-03-16T07:07:53.349Z,8.10
2018-03-16T07:10:21.623Z,8.00
2018-03-16T07:12:49.906Z,7.90
2018-03-16T07:15:30.233Z,7.90
2018-03-16T07:17:57.786Z,7.90
2018-03-16T07:20:25.270Z,7.90
2018-03-16T07:22:52.791Z,7.90
2018-03-16T07:25:20.295Z,7.80
2018-03-16T07:27:48.559Z,7.80
2018-03-16T07:30:16.083Z,7.80
2018-03-16T07:32:43.642Z,7.70
2018-03-16T07:35:11.889Z,7.70
2018-03-16T07:37:39.403Z,7.60
2018-03-16T07:40:06.902Z,7.60
2018-03-16T07:42:34.426Z,7.60
2018-03-16T07:45:01.932Z,7.60
2018-03-16T07:47:29.454Z,7.60
2018-03-16T07:49:57.723Z,7.60
2018-03-16T07:52:25.247Z,7.60
2018-03-16T07:54:53.510Z,7.70
2018-03-16T07:57:21.011Z,7.70
2018-03-16T07:59:48.535Z,7.70
2018-03-16T08:02:16.035Z,7.70
2018-03-16T08:04:43.558Z,7.70
2018-03-16T08:07:11.058Z,7.70
2018-03-16T08:09:39.353Z,7.70
2018-03-16T08:12:07.622Z,7.70
2018-03-16T08:14:35.898Z,7.80
2018-03-16T08:17:03.427Z,7.80
2018-03-16T08:19:30.917Z,7.80
2018-03-16T08:21:59.211Z,7.80
2018-03-16T08:24:27.530Z,7.80
2018-03-16T08:26:55.054Z,7.90
2018-03-16T08:29:22.554Z,7.90
2018-03-16T08:31:50.056Z,7.90
2018-03-16T08:34:17.583Z,8.00
2018-03-16T08:36:45.085Z,8.10
2018-03-16T08:39:12.648Z,8.10
2018-03-16T08:41:40.130Z,8.20
2018-03-16T08:44:07.658Z,8.30
2018-03-16T08:46:35.158Z,8.30
2018-03-16T08:49:02.666Z,8.30
2018-03-16T08:51:30.191Z,8.40
2018-03-16T08:53:57.690Z,8.50
2018-03-16T08:56:25.215Z,8.50
2018-03-16T08:58:52.714Z,8.50
2018-03-16T09:01:20.490Z,8.50
2018-03-16T09:03:48.002Z,8.40
2018-03-16T09:06:16.267Z,8.30
2018-03-16T09:08:43.782Z,8.30
2018-03-16T09:11:11.282Z,8.30
2018-03-16T09:13:38.801Z,8.30
2018-03-16T09:16:06.302Z,8.30
2018-03-16T09:18:34.147Z,8.40
2018-03-16T09:21:01.682Z,8.40
2018-03-16T09:23:29.186Z,8.40
2018-03-16T09:25:56.706Z,8.50
2018-03-16T09:28:24.211Z,8.50
2018-03-16T09:30:52.506Z,8.40
2018-03-16T09:33:20.853Z,8.50
2018-03-16T09:35:48.368Z,8.40
2018-03-16T09:38:15.904Z,8.50
2018-03-16T09:40:43.415Z,8.60
2018-03-16T09:43:10.938Z,8.60
2018-03-16T09:45:38.458Z,8.70
2018-03-16T09:48:06.754Z,8.80
2018-03-16T09:50:34.286Z,8.80
2018-03-16T09:53:01.779Z,8.80
2018-03-16T09:55:47.052Z,8.80
2018-03-16T09:58:14.559Z,8.80
2018-03-16T10:00:42.083Z,8.80
2018-03-16T10:03:09.592Z,8.70
2018-03-16T10:05:37.112Z,8.70
2018-03-16T10:08:04.605Z,8.70
2018-03-16T10:10:32.102Z,8.70
2018-03-16T10:12:59.633Z,8.70
2018-03-16T10:15:27.900Z,8.80
2018-03-16T10:17:55.423Z,8.80
2018-03-16T10:20:22.926Z,8.80
2018-03-16T10:22:50.450Z,8.80
2018-03-16T10:25:17.951Z,8.90
2018-03-16T10:27:46.235Z,9.00
2018-03-16T10:30:14.522Z,9.10
2018-03-16T10:32:42.023Z,9.10
2018-03-16T10:35:09.546Z,9.20
2018-03-16T10:37:37.050Z,9.30
2018-03-16T10:40:04.750Z,9.40
2018-03-16T10:42:33.015Z,9.60
2018-03-16T10:45:01.279Z,9.60
2018-03-16T10:47:28.793Z,9.60
2018-03-16T10:49:56.286Z,9.70
2018-03-16T10:52:23.803Z,9.80
2018-03-16T10:54:51.298Z,9.90
2018-03-16T10:57:19.610Z,9.80
2018-03-16T10:59:47.095Z,9.80
2018-03-16T11:02:19.586Z,9.80
2018-03-16T11:04:52.906Z,9.70
2018-03-16T11:07:20.423Z,9.80
2018-03-16T11:09:47.922Z,9.80
2018-03-16T11:12:15.427Z,9.90
2018-03-16T11:14:42.952Z,10.10
2018-03-16T11:17:10.446Z,10.30
2018-03-16T11:19:37.965Z,10.30
2018-03-16T11:22:05.468Z,10.30
2018-03-16T11:24:32.991Z,10.30
2018-03-16T11:27:00.486Z,10.20
2018-03-16T11:29:27.987Z,10.20
2018-03-16T11:31:55.516Z,10.20
2018-03-16T11:34:23.018Z,10.10
2018-03-16T11:36:50.542Z,10.00
2018-03-16T11:39:18.037Z,9.80
2018-03-16T11:41:45.554Z,9.70
2018-03-16T11:44:13.050Z,9.70
2018-03-16T11:46:40.538Z,9.70
2018-03-16T11:49:08.867Z,10.50
2018-03-16T11:51:36.342Z,10.50
2018-03-16T11:54:03.866Z,10.90
2018-03-16T11:56:31.358Z,11.10
2018-03-16T11:58:58.858Z,11.00
2018-03-16T12:01:26.386Z,10.80
2018-03-16T12:03:54.658Z,10.50
2018-03-16T12:06:22.178Z,10.50
2018-03-16T12:08:49.670Z,10.30
2018-03-16T12:11:17.475Z,10.10
2018-03-16T12:13:44.974Z,10.10
2018-03-16T12:16:12.466Z,9.90
2018-03-16T12:18:40.758Z,10.00
2018-03-16T12:21:09.022Z,10.10
2018-03-16T12:23:37.310Z,10.20
2018-03-16T12:26:05.570Z,10.20
2018-03-16T12:28:49.434Z,10.20
2018-03-16T12:31:00.635Z,10.30
2018-03-16T12:33:28.126Z,10.30
2018-03-16T12:35:55.650Z,10.40
2018-03-16T12:38:23.159Z,10.50
2018-03-16T12:40:50.689Z,10.50
2018-03-16T12:43:18.190Z,10.50
2018-03-16T12:45:46.474Z,10.40
2018-03-16T12:48:14.739Z,10.40
2018-03-16T12:50:43.004Z,10.40
2018-03-16T12:53:11.302Z,10.40
2018-03-16T12:55:39.565Z,10.40
2018-03-16T12:58:07.905Z,10.40
2018-03-16T13:00:35.366Z,10.40
2018-03-16T13:03:02.887Z,10.40
2018-03-16T13:05:30.386Z,10.30
2018-03-16T13:07:57.898Z,10.30
2018-03-16T13:10:25.423Z,10.20
2018-03-16T13:12:52.927Z,10.10
2018-03-16T13:15:20.465Z,10.10
2018-03-16T13:17:47.966Z,10.10
2018-03-16T13:20:15.486Z,10.10
2018-03-16T13:22:42.991Z,9.90
2018-03-16T13:25:10.487Z,9.90
2018-03-16T13:27:38.775Z,9.70
2018-03-16T13:30:07.042Z,9.70
2018-03-16T13:32:35.322Z,9.70
2018-03-16T13:35:03.587Z,9.60
2018-03-16T13:37:31.878Z,9.60
2018-03-16T13:40:00.146Z,9.50
2018-03-16T13:42:28.402Z,9.50
2018-03-16T13:44:55.919Z,9.50
2018-03-16T13:47:23.415Z,9.50
2018-03-16T13:49:50.931Z,9.40
2018-03-16T13:52:18.426Z,9.40
2018-03-16T13:54:45.947Z,9.40
2018-03-16T13:57:13.446Z,9.40
2018-03-16T13:59:40.944Z,9.40
2018-03-16T14:02:09.232Z,9.60
2018-03-16T14:04:37.588Z,9.50
2018-03-16T14:07:05.872Z,9.80
2018-03-16T14:09:34.134Z,9.90
2018-03-16T14:12:02.427Z,10.00
2018-03-16T14:14:30.690Z,10.10
2018-03-16T14:16:58.975Z,10.20
2018-03-16T14:19:27.243Z,10.40
2018-03-16T14:21:55.510Z,10.90
2018-03-16T14:24:23.026Z,10.80
2018-03-16T14:26:50.518Z,11.10
2018-03-16T14:29:18.038Z,11.20
2018-03-16T14:31:45.538Z,11.10
2018-03-16T14:34:13.062Z,11.00
2018-03-16T14:36:40.558Z,10.90
2018-03-16T14:39:08.807Z,10.80
2018-03-16T14:41:36.336Z,10.70
2018-03-16T14:44:03.835Z,10.80
2018-03-16T14:46:31.358Z,10.80
2018-03-16T14:48:58.859Z,10.90
2018-03-16T14:51:26.383Z,10.80
2018-03-16T14:53:53.888Z,10.80
2018-03-16T14:56:21.391Z,10.70
2018-03-16T14:58:48.910Z,10.70
2018-03-16T15:01:17.175Z,10.60
2018-03-16T15:03:44.703Z,10.60
2018-03-16T15:06:12.203Z,10.50
2018-03-16T15:08:40.499Z,10.50
2018-03-16T15:11:07.998Z,10.50
2018-03-16T15:13:35.506Z,10.40
2018-03-16T15:16:03.795Z,10.50
2018-03-16T15:18:31.302Z,10.50
2018-03-16T15:20:58.818Z,10.40
2018-03-16T15:23:26.319Z,10.40
2018-03-16T15:25:53.851Z,10.30
2018-03-16T15:28:21.354Z,10.20
2018-03-16T15:30:48.850Z,10.10
2018-03-16T15:33:16.373Z,10.00
2018-03-16T15:35:43.870Z,10.00
2018-03-16T15:38:11.406Z,10.00
2018-03-16T15:40:39.662Z,9.90
2018-03-16T15:43:07.184Z,9.90
2018-03-16T15:45:34.679Z,9.90
2018-03-16T15:48:02.214Z,9.90
2018-03-16T15:50:29.723Z,9.90
2018-03-16T15:52:57.978Z,9.90
2018-03-16T15:55:25.495Z,9.90
2018-03-16T15:57:52.990Z,9.80
2018-03-16T16:00:20.506Z,9.80
2018-03-16T16:02:48.010Z,9.70
2018-03-16T16:05:15.506Z,9.70
2018-03-16T16:07:43.022Z,9.80
2018-03-16T16:10:10.514Z,9.80
2018-03-16T16:12:38.038Z,9.80
2018-03-16T16:15:05.597Z,9.80
2018-03-16T16:17:33.046Z,9.90
2018-03-16T16:20:00.568Z,9.90
2018-03-16T16:22:28.062Z,9.90
2018-03-16T16:24:55.579Z,9.90
2018-03-16T16:27:23.130Z,10.00
2018-03-16T16:29:50.654Z,9.90
2018-03-16T16:32:18.147Z,9.90
2018-03-16T16:34:45.672Z,9.90
2018-03-16T16:37:13.167Z,9.90
2018-03-16T16:39:40.671Z,9.80
2018-03-16T16:42:08.186Z,9.80
2018-03-16T16:44:35.678Z,9.70
2018-03-16T16:47:03.196Z,9.70
2018-03-16T16:49:30.690Z,9.70
2018-03-16T16:51:58.210Z,9.60
2018-03-16T16:54:25.706Z,9.60
2018-03-16T16:56:53.202Z,9.60
2018-03-16T16:59:21.490Z,9.60
2018-03-16T17:01:49.747Z,9.70
2018-03-16T17:04:17.268Z,9.60
2018-03-16T17:06:44.762Z,9.60
2018-03-16T17:09:12.283Z,9.70
2018-03-16T17:11:39.779Z,9.60
2018-03-16T17:14:07.307Z,9.60
2018-03-16T17:16:34.852Z,9.60
2018-03-16T17:19:02.339Z,9.60
2018-03-16T17:21:29.855Z,9.50
2018-03-16T17:23:57.350Z,9.50
2018-03-16T17:26:24.866Z,9.40
2018-03-16T17:28:52.358Z,9.40
2018-03-16T17:31:19.873Z,9.30
2018-03-16T17:33:48.159Z,9.20
2018-03-16T17:36:15.659Z,9.20
2018-03-16T17:38:43.191Z,9.30
2018-03-16T17:41:10.690Z,9.20
2018-03-16T17:43:38.191Z,9.20
2018-03-16T17:46:05.711Z,9.20
2018-03-16T17:48:33.206Z,9.20
2018-03-16T17:51:00.731Z,9.20
2018-03-16T17:53:28.230Z,9.20
2018-03-16T17:55:55.722Z,9.20
2018-03-16T17:58:23.243Z,9.20
2018-03-16T18:00:50.739Z,9.20
2018-03-16T18:03:18.259Z,9.20
2018-03-16T18:05:45.762Z,9.20
2018-03-16T18:08:13.271Z,9.10
2018-03-16T18:10:40.786Z,9.10
2018-03-16T18:13:08.295Z,9.10
2018-03-16T18:15:35.869Z,9.10
2018-03-16T18:18:03.367Z,9.10
2018-03-16T18:20:30.858Z,9.00
2018-03-16T18:22:59.138Z,9.00
2018-03-16T18:25:27.450Z,8.90
2018-03-16T18:27:55.710Z,8.90
2018-03-16T18:30:23.208Z,8.90
2018-03-16T18:32:50.735Z,8.90
2018-03-16T18:35:18.243Z,8.90
2018-03-16T18:37:46.514Z,8.90
2018-03-16T18:40:14.043Z,8.80
2018-03-16T18:42:41.539Z,8.90
2018-03-16T18:45:09.059Z,8.90
2018-03-16T18:47:36.559Z,8.80
2018-03-16T18:50:05.410Z,8.70
2018-03-16T18:52:32.902Z,8.60
2018-03-16T18:55:01.174Z,8.50
2018-03-16T18:57:28.690Z,8.50
2018-03-16T18:59:56.182Z,8.40
2018-03-16T19:02:23.699Z,8.30
2018-03-16T19:04:51.190Z,8.30
2018-03-16T19:07:18.707Z,8.20
2018-03-16T19:09:46.202Z,8.10
2018-03-16T19:12:13.699Z,8.00
2018-03-16T19:14:41.989Z,7.90
2018-03-16T19:17:09.491Z,7.80
2018-03-16T19:19:37.006Z,7.80
2018-03-16T19:22:04.498Z,7.70
2018-03-16T19:24:31.991Z,7.70
2018-03-16T19:26:59.513Z,7.60
2018-03-16T19:29:27.006Z,7.60
2018-03-16T19:31:54.527Z,7.40
2018-03-16T19:34:22.020Z,7.30
2018-03-16T19:36:49.543Z,7.20
2018-03-16T19:39:17.038Z,7.20
2018-03-16T19:41:44.530Z,7.10
2018-03-16T19:44:12.050Z,7.10
2018-03-16T19:46:39.542Z,7.00
2018-03-16T19:49:07.823Z,6.90
2018-03-16T19:51:36.078Z,6.80
2018-03-16T19:54:03.599Z,6.80
2018-03-16T19:56:31.104Z,6.70
2018-03-16T19:58:59.363Z,6.50
2018-03-16T20:01:26.879Z,6.50
2018-03-16T20:03:54.374Z,6.50
2018-03-16T20:06:21.899Z,6.40
2018-03-16T20:08:49.390Z,6.30
2018-03-16T20:11:16.907Z,6.20
2018-03-16T20:13:44.402Z,6.10
2018-03-16T20:16:11.898Z,6.00
2018-03-16T20:18:40.182Z,5.80
2018-03-16T20:21:07.674Z,5.80
2018-03-16T20:23:35.199Z,5.80
2018-03-16T20:26:02.706Z,5.70
2018-03-16T20:28:30.230Z,5.60
2018-03-16T20:30:57.739Z,5.60
2018-03-16T20:33:25.233Z,5.50
2018-03-16T20:35:52.751Z,5.50
2018-03-16T20:38:20.247Z,5.40
2018-03-16T20:40:47.775Z,5.40
2018-03-16T20:43:15.275Z,5.30
2018-03-16T20:45:42.798Z,5.30
2018-03-16T20:48:11.067Z,5.20
2018-03-16T20:50:38.566Z,5.20
2018-03-16T20:53:06.092Z,5.10
2018-03-16T20:55:33.587Z,5.10
2018-03-16T20:58:01.106Z,5.00
2018-03-16T21:00:28.608Z,4.90
2018-03-16T21:02:56.126Z,5.00
2018-03-16T21:05:23.623Z,4.90
2018-03-16T21:07:51.140Z,4.90
2018-03-16T21:10:18.662Z,4.90
2018-03-16T21:12:46.158Z,4.90
2018-03-16T21:15:13.679Z,4.90
2018-03-16T21:17:41.174Z,4.80
2018-03-16T21:20:08.713Z,4.80
2018-03-16T21:22:36.218Z,4.70
2018-03-16T21:25:03.718Z,4.70
2018-03-16T21:27:31.243Z,4.60
2018-03-16T21:29:58.746Z,4.60
2018-03-16T21:32:26.267Z,4.50
2018-03-16T21:34:53.766Z,4.40
2018-03-16T21:37:21.286Z,4.40
2018-03-16T21:39:48.791Z,4.30
2018-03-16T21:42:16.292Z,4.30
2018-03-16T21:44:43.819Z,4.30
2018-03-16T21:47:11.318Z,4.30
2018-03-16T21:49:38.843Z,4.30
2018-03-16T21:52:07.110Z,4.20
2018-03-16T21:54:34.635Z,4.20
2018-03-16T21:57:02.138Z,4.20
2018-03-16T21:59:30.410Z,4.20
2018-03-16T22:01:58.698Z,4.10
2018-03-16T22:04:26.968Z,4.10
2018-03-16T22:06:55.259Z,4.10
2018-03-16T22:09:22.763Z,4.10
2018-03-16T22:11:50.291Z,4.10
2018-03-16T22:14:17.795Z,4.10
2018-03-16T22:16:45.302Z,4.00
2018-03-16T22:19:12.822Z,4.00
2018-03-16T22:21:40.326Z,4.00
2018-03-16T22:24:07.851Z,3.90
2018-03-16T22:26:36.119Z,3.90
2018-03-16T22:29:03.642Z,3.90
2018-03-16T22:31:31.137Z,3.80
2018-03-16T22:33:59.406Z,3.80
2018-03-16T22:36:26.930Z,3.80
2018-03-16T22:38:54.435Z,3.80
2018-03-16T22:41:22.721Z,3.70
2018-03-16T22:43:50.989Z,3.60
2018-03-16T22:46:19.283Z,3.70
2018-03-16T22:48:46.786Z,3.60
2018-03-16T22:51:14.282Z,3.70
2018-03-16T22:53:42.571Z,3.60
2018-03-16T22:56:10.830Z,3.60
2018-03-16T22:58:38.355Z,3.60
2018-03-16T23:01:05.859Z,3.60
2018-03-16T23:03:34.122Z,3.60
2018-03-16T23:06:01.639Z,3.60
2018-03-16T23:08:29.134Z,3.60
2018-03-16T23:10:56.651Z,3.60
2018-03-16T23:13:24.151Z,3.60
2018-03-16T23:15:51.670Z,3.50
2018-03-16T23:18:19.175Z,3.50
2018-03-16T23:20:47.439Z,3.50
2018-03-16T23:23:14.962Z,3.50
2018-03-16T23:25:42.458Z,3.40
2018-03-16T23:28:09.979Z,3.40
2018-03-16T23:30:37.479Z,3.30
2018-03-16T23:33:05.007Z,3.30
2018-03-16T23:35:33.270Z,3.30
2018-03-16T23:38:00.770Z,3.30
2018-03-16T23:40:28.287Z,3.30
2018-03-16T23:42:55.786Z,3.30
2018-03-16T23:45:23.310Z,3.30
2018-03-16T23:47:50.806Z,3.20
2018-03-16T23:50:18.335Z,3.20
2018-03-16T23:52:45.839Z,3.10
2018-03-16T23:55:14.114Z,3.10
2018-03-16T23:57:42.411Z,3.10
